createdAt,value
2023-04-10T00:01:10.136Z,30.60
2023-04-10T00:03:37.849Z,30.67
2023-04-10T00:06:05.754Z,28.07
2023-04-10T00:08:32.751Z,26.60
2023-04-10T00:10:59.828Z,26.33
2023-04-10T00:13:26.865Z,25.97
2023-04-10T00:15:53.924Z,24.80
2023-04-10T00:18:20.998Z,23.87
2023-04-10T00:20:47.979Z,26.57
2023-04-10T00:23:14.976Z,32.90
2023-04-10T00:25:41.958Z,35.33
2023-04-10T00:28:08.926Z,30.83
2023-04-10T00:30:35.940Z,29.67
2023-04-10T00:33:02.904Z,27.47
2023-04-10T00:35:29.915Z,27.57
2023-04-10T00:37:57.759Z,28.73
2023-04-10T00:40:24.898Z,27.93
2023-04-10T00:42:51.917Z,27.63
2023-04-10T00:45:19.086Z,32.30
2023-04-10T00:47:46.733Z,29.10
2023-04-10T00:50:13.903Z,33.83
2023-04-10T00:52:40.979Z,28.23
2023-04-10T00:55:08.696Z,32.77
2023-04-10T00:57:36.292Z,31.47
2023-04-10T01:00:04.833Z,26.37
2023-04-10T01:02:32.297Z,29.67
2023-04-10T01:04:59.628Z,28.00
2023-04-10T01:07:56.199Z,34.37
2023-04-10T01:10:49.092Z,43.50
2023-04-10T01:13:16.898Z,42.53
2023-04-10T01:16:22.549Z,42.93
2023-04-10T01:19:19.036Z,34.50
2023-04-10T01:21:46.827Z,35.67
2023-04-10T01:24:43.254Z,28.90
2023-04-10T01:27:16.226Z,29.80
2023-04-10T01:29:48.288Z,36.20
2023-04-10T01:32:21.030Z,24.47
2023-04-10T01:34:54.761Z,29.40
2023-04-10T01:37:33.564Z,25.77
2023-04-10T01:40:09.573Z,25.53
2023-04-10T01:42:45.469Z,24.63
2023-04-10T01:45:19.194Z,25.27
2023-04-10T01:47:49.208Z,24.83
2023-04-10T01:50:17.028Z,30.83
2023-04-10T01:52:45.606Z,29.63
2023-04-10T01:55:25.745Z,27.93
2023-04-10T01:57:58.883Z,26.73
2023-04-10T02:00:26.262Z,27.57
2023-04-10T02:02:53.817Z,27.07
2023-04-10T02:05:22.242Z,28.63
2023-04-10T02:08:06.351Z,24.47
2023-04-10T02:10:45.848Z,25.90
2023-04-10T02:13:16.217Z,27.37
2023-04-10T02:15:46.790Z,23.00
2023-04-10T02:18:17.159Z,25.13
2023-04-10T02:20:44.677Z,27.07
2023-04-10T02:23:16.208Z,25.43
2023-04-10T02:25:43.439Z,24.93
2023-04-10T02:28:10.626Z,28.03
2023-04-10T02:30:39.196Z,21.50
2023-04-10T02:33:06.423Z,24.73
2023-04-10T02:35:34.730Z,24.63
2023-04-10T02:38:03.860Z,27.93
2023-04-10T02:40:32.811Z,24.23
2023-04-10T02:43:12.266Z,22.97
2023-04-10T02:45:40.170Z,25.43
2023-04-10T02:48:08.532Z,25.37
2023-04-10T02:50:35.507Z,31.63
2023-04-10T02:53:02.695Z,33.50
2023-04-10T02:55:29.956Z,33.13
2023-04-10T02:57:57.571Z,28.17
2023-04-10T03:00:24.618Z,29.80
2023-04-10T03:03:14.557Z,27.47
2023-04-10T03:05:49.309Z,24.87
2023-04-10T03:08:18.730Z,26.27
2023-04-10T03:10:48.690Z,26.57
2023-04-10T03:13:16.622Z,27.37
2023-04-10T03:15:43.761Z,27.60
2023-04-10T03:18:11.050Z,23.70
2023-04-10T03:20:41.120Z,25.00
2023-04-10T03:23:08.695Z,27.20
2023-04-10T03:25:36.571Z,31.03
2023-04-10T03:28:05.494Z,22.60
2023-04-10T03:30:32.509Z,23.87
2023-04-10T03:32:59.449Z,26.50
2023-04-10T03:35:26.438Z,23.77
2023-04-10T03:37:53.537Z,25.00
2023-04-10T03:40:20.920Z,25.90
2023-04-10T03:42:47.971Z,24.93
2023-04-10T03:45:15.754Z,30.17
2023-04-10T03:47:42.824Z,22.50
2023-04-10T03:50:12.643Z,28.03
2023-04-10T03:52:49.793Z,28.27
2023-04-10T03:55:19.129Z,27.57
2023-04-10T03:57:48.297Z,26.33
2023-04-10T04:00:18.278Z,26.07
2023-04-10T04:02:52.172Z,25.93
2023-04-10T04:05:38.108Z,26.37
2023-04-10T04:08:23.864Z,25.37
2023-04-10T04:11:09.164Z,27.03
2023-04-10T04:13:46.259Z,21.40
2023-04-10T04:16:37.505Z,18.10
2023-04-10T04:19:24.818Z,21.37
2023-04-10T04:22:27.584Z,23.00
2023-04-10T04:25:13.136Z,23.60
2023-04-10T04:27:58.535Z,21.07
2023-04-10T04:30:40.876Z,21.83
2023-04-10T04:33:14.824Z,20.70
2023-04-10T04:35:57.963Z,22.90
2023-04-10T04:38:43.077Z,25.40
2023-04-10T04:41:32.540Z,26.53
2023-04-10T04:44:11.926Z,27.73
2023-04-10T04:47:04.980Z,25.00
2023-04-10T04:49:45.015Z,25.03
2023-04-10T04:52:29.534Z,28.50
2023-04-10T04:55:14.641Z,24.43
2023-04-10T04:58:01.913Z,25.47
2023-04-10T05:00:39.784Z,25.37
2023-04-10T05:03:28.855Z,25.00
2023-04-10T05:06:04.617Z,28.37
2023-04-10T05:09:07.261Z,29.50
2023-04-10T05:11:46.152Z,27.13
2023-04-10T05:14:33.509Z,24.33
2023-04-10T05:17:26.254Z,26.13
2023-04-10T05:20:04.876Z,23.60
2023-04-10T05:22:54.555Z,27.33
2023-04-10T05:25:39.104Z,30.73
2023-04-10T05:28:16.801Z,32.70
2023-04-10T05:31:06.941Z,42.07
2023-04-10T05:34:12.605Z,34.10
2023-04-10T05:37:07.094Z,36.80
2023-04-10T05:39:49.889Z,28.13
2023-04-10T05:42:39.443Z,32.67
2023-04-10T05:45:32.315Z,33.67
2023-04-10T05:48:01.910Z,25.03
2023-04-10T05:50:41.171Z,20.63
2023-04-10T05:53:15.449Z,24.67
2023-04-10T05:55:51.691Z,24.27
2023-04-10T05:58:37.635Z,25.23
2023-04-10T06:01:07.800Z,27.23
2023-04-10T06:03:48.133Z,23.73
2023-04-10T06:06:17.780Z,24.00
2023-04-10T06:08:44.872Z,24.43
2023-04-10T06:11:11.928Z,24.87
2023-04-10T06:13:42.125Z,23.20
2023-04-10T06:16:09.900Z,22.93
2023-04-10T06:18:38.378Z,30.03
2023-04-10T06:21:05.728Z,34.47
2023-04-10T06:23:32.803Z,32.63
2023-04-10T06:26:01.015Z,30.97
2023-04-10T06:28:28.012Z,29.07
2023-04-10T06:30:58.358Z,25.90
2023-04-10T06:33:31.577Z,18.93
2023-04-10T06:35:59.404Z,24.77
2023-04-10T06:38:26.469Z,20.53
2023-04-10T06:40:53.553Z,18.10
2023-04-10T06:43:20.726Z,18.63
2023-04-10T06:45:48.880Z,20.17
2023-04-10T06:48:15.829Z,21.65
2023-04-10T06:50:42.808Z,18.03
2023-04-10T06:53:09.833Z,19.02
2023-04-10T06:55:37.580Z,15.35
2023-04-10T06:58:04.718Z,14.68
2023-04-10T07:00:31.859Z,14.70
2023-04-10T07:02:59.024Z,14.98
2023-04-10T07:05:26.034Z,11.27
2023-04-10T07:07:53.390Z,13.27
2023-04-10T07:10:20.484Z,15.97
2023-04-10T07:12:47.473Z,12.52
2023-04-10T07:15:14.568Z,12.77
2023-04-10T07:17:41.641Z,13.95
2023-04-10T07:20:09.557Z,12.82
2023-04-10T07:22:36.595Z,14.30
2023-04-10T07:25:04.454Z,14.20
2023-04-10T07:27:31.496Z,12.10
2023-04-10T07:29:58.619Z,15.27
2023-04-10T07:32:26.180Z,10.18
2023-04-10T07:34:53.451Z,13.45
2023-04-10T07:37:20.618Z,13.45
2023-04-10T07:39:47.999Z,9.45
2023-04-10T07:42:15.529Z,9.65
2023-04-10T07:44:42.684Z,10.88
2023-04-10T07:47:09.808Z,10.85
2023-04-10T07:49:36.857Z,9.63
2023-04-10T07:52:04.133Z,7.45
2023-04-10T07:54:34.800Z,6.82
2023-04-10T07:57:01.841Z,10.35
2023-04-10T07:59:29.149Z,7.75
2023-04-10T08:01:56.385Z,13.70
2023-04-10T08:04:23.802Z,11.02
2023-04-10T08:06:50.996Z,10.57
2023-04-10T08:09:18.102Z,7.50
2023-04-10T08:11:45.353Z,13.40
2023-04-10T08:14:13.505Z,8.52
2023-04-10T08:16:45.663Z,9.82
2023-04-10T08:19:12.928Z,11.52
2023-04-10T08:21:40.095Z,9.93
2023-04-10T08:24:07.205Z,10.77
2023-04-10T08:26:34.260Z,12.35
2023-04-10T08:29:01.539Z,11.70
2023-04-10T08:31:30.424Z,10.88
2023-04-10T08:33:58.143Z,8.55
2023-04-10T08:36:27.273Z,9.30
2023-04-10T08:38:54.495Z,11.15
2023-04-10T08:41:21.724Z,8.70
2023-04-10T08:43:50.220Z,9.85
2023-04-10T08:46:17.577Z,7.68
2023-04-10T08:48:52.889Z,10.00
2023-04-10T08:51:25.990Z,12.10
2023-04-10T08:54:00.834Z,10.52
2023-04-10T08:56:28.313Z,9.45
2023-04-10T08:58:56.490Z,8.63
2023-04-10T09:01:24.897Z,8.25
2023-04-10T09:03:52.884Z,11.73
2023-04-10T09:06:20.122Z,7.40
2023-04-10T09:08:47.369Z,9.85
2023-04-10T09:11:15.147Z,8.10
2023-04-10T09:13:44.265Z,9.55
2023-04-10T09:16:13.964Z,7.90
2023-04-10T09:18:51.983Z,12.27
2023-04-10T09:21:21.700Z,6.45
2023-04-10T09:24:00.791Z,6.30
2023-04-10T09:26:34.326Z,9.13
2023-04-10T09:29:12.465Z,14.40
2023-04-10T09:31:43.016Z,7.07
2023-04-10T09:34:13.835Z,7.10
2023-04-10T09:36:53.672Z,7.93
2023-04-10T09:39:21.263Z,8.32
2023-04-10T09:41:55.687Z,8.43
2023-04-10T09:44:35.070Z,7.32
2023-04-10T09:47:14.316Z,8.77
2023-04-10T09:49:56.152Z,9.05
2023-04-10T09:52:27.261Z,8.55
2023-04-10T09:55:00.383Z,9.05
2023-04-10T09:57:32.228Z,9.45
2023-04-10T10:00:04.507Z,10.30
2023-04-10T10:02:41.440Z,8.30
2023-04-10T10:05:10.706Z,4.05
2023-04-10T10:07:39.636Z,4.35
2023-04-10T10:10:09.236Z,8.88
2023-04-10T10:13:11.071Z,4.47
2023-04-10T10:16:20.987Z,6.40
2023-04-10T10:19:17.822Z,6.13
2023-04-10T10:21:45.908Z,5.63
2023-04-10T10:24:14.142Z,7.47
2023-04-10T10:26:42.516Z,4.78
2023-04-10T10:29:17.348Z,6.18
2023-04-10T10:31:47.100Z,7.63
2023-04-10T10:34:16.496Z,7.00
2023-04-10T10:36:43.569Z,10.23
2023-04-10T10:39:10.501Z,9.20
2023-04-10T10:42:07.001Z,5.60
2023-04-10T10:44:46.133Z,6.03
2023-04-10T10:47:24.942Z,6.65
2023-04-10T10:50:05.256Z,9.98
2023-04-10T10:52:57.418Z,5.35
2023-04-10T10:55:36.894Z,3.28
2023-04-10T10:58:11.533Z,6.13
2023-04-10T11:00:50.782Z,8.00
2023-04-10T11:03:17.825Z,10.63
2023-04-10T11:05:58.521Z,4.32
2023-04-10T11:08:48.248Z,5.97
2023-04-10T11:11:20.184Z,5.38
2023-04-10T11:13:50.318Z,5.82
2023-04-10T11:16:17.785Z,5.20
2023-04-10T11:18:59.361Z,3.83
2023-04-10T11:21:34.439Z,3.85
2023-04-10T11:24:04.038Z,4.00
2023-04-10T11:26:34.996Z,8.10
2023-04-10T11:29:03.316Z,6.05
2023-04-10T11:31:31.327Z,8.15
2023-04-10T11:34:03.432Z,5.20
2023-04-10T11:36:32.241Z,5.35
2023-04-10T11:39:09.071Z,4.93
2023-04-10T11:41:42.670Z,7.03
2023-04-10T11:44:16.288Z,6.03
2023-04-10T11:46:50.836Z,4.75
2023-04-10T11:49:34.941Z,5.70
2023-04-10T11:52:02.084Z,6.82
2023-04-10T11:54:29.836Z,4.55
2023-04-10T11:57:14.705Z,7.82
2023-04-10T11:59:41.762Z,6.30
2023-04-10T12:02:14.727Z,4.30
2023-04-10T12:04:44.019Z,4.75
2023-04-10T12:07:11.811Z,6.15
2023-04-10T12:09:42.717Z,4.88
2023-04-10T12:12:09.851Z,5.20
2023-04-10T12:14:42.015Z,6.68
2023-04-10T12:17:11.600Z,5.45
2023-04-10T12:19:39.656Z,7.07
2023-04-10T12:22:07.601Z,4.88
2023-04-10T12:24:48.280Z,4.75
2023-04-10T12:27:28.635Z,3.78
2023-04-10T12:29:58.650Z,6.05
2023-04-10T12:32:27.651Z,4.78
2023-04-10T12:34:57.658Z,3.83
2023-04-10T12:37:26.673Z,7.72
2023-04-10T12:39:53.872Z,6.80
2023-04-10T12:42:23.089Z,8.15
2023-04-10T12:44:52.062Z,10.90
2023-04-10T12:47:19.088Z,9.20
2023-04-10T12:50:08.091Z,12.38
2023-04-10T12:52:36.036Z,13.10
2023-04-10T12:55:17.083Z,14.05
2023-04-10T12:57:46.992Z,12.10
2023-04-10T13:00:19.486Z,9.23
2023-04-10T13:02:48.581Z,12.40
2023-04-10T13:05:16.032Z,12.02
2023-04-10T13:07:43.102Z,13.90
2023-04-10T13:10:10.834Z,9.27
2023-04-10T13:12:38.975Z,10.13
2023-04-10T13:15:07.741Z,8.27
2023-04-10T13:17:35.103Z,8.52
2023-04-10T13:20:02.305Z,8.30
2023-04-10T13:22:29.362Z,9.57
2023-04-10T13:24:56.296Z,16.63
2023-04-10T13:27:23.295Z,9.98
2023-04-10T13:29:50.373Z,9.35
2023-04-10T13:32:17.368Z,11.27
2023-04-10T13:34:44.349Z,9.60
2023-04-10T13:37:14.437Z,8.80
2023-04-10T13:39:43.314Z,10.88
2023-04-10T13:42:10.403Z,11.93
2023-04-10T13:44:37.362Z,11.13
2023-04-10T13:47:04.356Z,11.70
2023-04-10T13:49:31.561Z,12.48
2023-04-10T13:51:58.685Z,8.60
2023-04-10T13:54:26.598Z,11.88
2023-04-10T13:56:54.685Z,12.23
2023-04-10T13:59:21.858Z,9.60
2023-04-10T14:01:50.969Z,17.33
2023-04-10T14:04:18.644Z,6.35
2023-04-10T14:06:45.706Z,8.27
2023-04-10T14:09:12.738Z,11.98
2023-04-10T14:11:39.747Z,11.80
2023-04-10T14:14:06.784Z,13.48
2023-04-10T14:16:33.798Z,12.35
2023-04-10T14:19:00.799Z,15.93
2023-04-10T14:21:27.762Z,12.82
2023-04-10T14:23:54.713Z,13.20
2023-04-10T14:26:21.790Z,13.90
2023-04-10T14:28:48.781Z,14.23
2023-04-10T14:31:15.952Z,13.52
2023-04-10T14:33:42.987Z,17.40
2023-04-10T14:36:10.216Z,11.50
2023-04-10T14:38:37.249Z,9.18
2023-04-10T14:41:04.314Z,8.07
2023-04-10T14:43:31.241Z,65.88
2023-04-10T14:45:58.219Z,30.52
2023-04-10T14:48:25.799Z,14.77
2023-04-10T14:50:52.816Z,12.32
2023-04-10T14:53:21.576Z,9.75
2023-04-10T14:55:49.103Z,10.75
2023-04-10T14:58:16.056Z,12.32
2023-04-10T15:00:43.773Z,9.65
2023-04-10T15:03:10.991Z,16.15
2023-04-10T15:05:38.122Z,15.32
2023-04-10T15:08:05.182Z,8.48
2023-04-10T15:10:32.120Z,9.63
2023-04-10T15:12:59.146Z,7.30
2023-04-10T15:15:26.102Z,13.85
2023-04-10T15:17:53.141Z,13.43
2023-04-10T15:20:20.253Z,17.20
2023-04-10T15:22:48.233Z,11.05
2023-04-10T15:25:15.318Z,12.60
2023-04-10T15:27:42.385Z,12.13
2023-04-10T15:30:09.887Z,14.13
2023-04-10T15:32:39.912Z,16.77
2023-04-10T15:35:07.798Z,15.88
2023-04-10T15:37:37.322Z,15.88
2023-04-10T15:40:06.284Z,10.77
2023-04-10T15:42:36.701Z,13.30
2023-04-10T15:45:04.350Z,11.23
2023-04-10T15:47:31.444Z,13.55
2023-04-10T15:49:59.169Z,18.00
2023-04-10T15:52:26.243Z,12.13
2023-04-10T15:54:53.228Z,14.45
2023-04-10T15:57:20.230Z,13.45
2023-04-10T15:59:47.408Z,14.40
2023-04-10T16:02:14.496Z,15.32
2023-04-10T16:04:41.574Z,15.48
2023-04-10T16:07:08.682Z,15.52
2023-04-10T16:09:36.074Z,18.50
2023-04-10T16:12:09.231Z,17.20
2023-04-10T16:14:37.945Z,13.13
2023-04-10T16:17:04.982Z,12.68
2023-04-10T16:19:32.196Z,13.25
2023-04-10T16:21:59.312Z,17.02
2023-04-10T16:24:26.709Z,11.45
2023-04-10T16:26:54.192Z,15.90
2023-04-10T16:29:21.617Z,12.88
2023-04-10T16:31:48.680Z,16.23
2023-04-10T16:34:15.753Z,11.52
2023-04-10T16:36:42.673Z,20.67
2023-04-10T16:39:09.799Z,15.45
2023-04-10T16:41:36.801Z,11.30
2023-04-10T16:44:03.747Z,18.40
2023-04-10T16:46:33.037Z,15.95
2023-04-10T16:49:01.540Z,15.05
2023-04-10T16:51:28.805Z,16.92
2023-04-10T16:53:55.832Z,18.40
2023-04-10T16:56:22.837Z,14.90
2023-04-10T16:58:49.854Z,14.50
2023-04-10T17:01:26.105Z,14.85
2023-04-10T17:03:54.639Z,14.57
2023-04-10T17:06:22.164Z,16.02
2023-04-10T17:08:49.126Z,11.48
2023-04-10T17:11:16.200Z,17.27
2023-04-10T17:13:43.298Z,19.58
2023-04-10T17:16:10.642Z,19.90
2023-04-10T17:18:40.657Z,11.60
2023-04-10T17:21:16.950Z,16.75
2023-04-10T17:23:46.643Z,13.57
2023-04-10T17:26:15.888Z,13.38
2023-04-10T17:28:46.839Z,13.60
2023-04-10T17:31:14.037Z,12.77
2023-04-10T17:33:41.900Z,15.02
2023-04-10T17:36:11.939Z,14.52
2023-04-10T17:38:40.320Z,17.85
2023-04-10T17:41:08.955Z,12.98
2023-04-10T17:43:36.208Z,14.30
2023-04-10T17:46:03.246Z,16.95
2023-04-10T17:48:30.499Z,13.27
2023-04-10T17:50:57.879Z,13.88
2023-04-10T17:53:24.839Z,14.38
2023-04-10T17:55:51.812Z,16.17
2023-04-10T17:58:18.772Z,16.70
2023-04-10T18:00:46.546Z,15.25
2023-04-10T18:03:13.654Z,21.80
2023-04-10T18:05:40.939Z,13.35
2023-04-10T18:08:08.744Z,11.95
2023-04-10T18:10:38.134Z,15.02
2023-04-10T18:13:06.402Z,12.32
2023-04-10T18:15:33.361Z,18.38
2023-04-10T18:18:00.426Z,11.93
2023-04-10T18:20:27.392Z,13.63
2023-04-10T18:22:54.351Z,11.20
2023-04-10T18:25:21.308Z,14.02
2023-04-10T18:28:12.599Z,13.43
2023-04-10T18:30:39.882Z,16.05
2023-04-10T18:33:10.184Z,21.52
2023-04-10T18:35:37.920Z,16.25
2023-04-10T18:38:05.133Z,30.40
2023-04-10T18:40:34.527Z,26.40
2023-04-10T18:43:01.472Z,24.60
2023-04-10T18:45:28.404Z,25.85
2023-04-10T18:47:55.592Z,33.65
2023-04-10T18:50:22.708Z,30.95
2023-04-10T18:52:50.798Z,25.08
2023-04-10T18:55:17.897Z,27.77
2023-04-10T18:57:44.903Z,26.92
2023-04-10T19:00:13.143Z,34.78
2023-04-10T19:02:40.377Z,32.72
2023-04-10T19:05:08.520Z,27.77
2023-04-10T19:07:35.535Z,35.92
2023-04-10T19:10:02.521Z,32.53
2023-04-10T19:12:29.487Z,36.80
2023-04-10T19:14:56.436Z,35.72
2023-04-10T19:17:24.874Z,32.17
2023-04-10T19:19:53.252Z,33.13
2023-04-10T19:22:20.211Z,42.40
2023-04-10T19:24:47.239Z,41.47
2023-04-10T19:27:14.217Z,42.22
2023-04-10T19:29:41.176Z,55.35
2023-04-10T19:32:09.993Z,52.00
2023-04-10T19:34:36.978Z,43.95
2023-04-10T19:37:03.920Z,45.50
2023-04-10T19:39:30.928Z,50.15
2023-04-10T19:41:58.258Z,54.22
2023-04-10T19:44:25.386Z,77.82
2023-04-10T19:46:52.395Z,72.80
2023-04-10T19:49:19.572Z,75.07
2023-04-10T19:51:47.052Z,79.38
2023-04-10T19:54:14.183Z,126.85
2023-04-10T19:56:41.137Z,104.10
2023-04-10T19:59:08.188Z,95.10
2023-04-10T20:01:35.493Z,86.35
2023-04-10T20:04:02.660Z,89.43
2023-04-10T20:06:29.828Z,104.70
2023-04-10T20:08:57.108Z,94.22
2023-04-10T20:11:30.392Z,71.88
2023-04-10T20:13:57.844Z,52.95
2023-04-10T20:16:26.645Z,57.10
2023-04-10T20:18:55.475Z,51.13
2023-04-10T20:21:22.794Z,47.17
2023-04-10T20:23:49.888Z,45.75
2023-04-10T20:26:17.828Z,42.08
2023-04-10T20:28:44.874Z,48.60
2023-04-10T20:31:12.288Z,70.32
2023-04-10T20:33:39.402Z,65.10
2023-04-10T20:36:06.831Z,60.55
2023-04-10T20:38:33.891Z,64.25
2023-04-10T20:41:00.869Z,59.80
2023-04-10T20:43:27.866Z,63.38
2023-04-10T20:45:54.869Z,64.45
2023-04-10T20:48:21.905Z,72.78
2023-04-10T20:50:49.389Z,73.85
2023-04-10T20:53:16.496Z,82.63
2023-04-10T20:55:43.566Z,68.33
2023-04-10T20:58:10.681Z,60.60
2023-04-10T21:00:39.713Z,68.77
2023-04-10T21:03:06.931Z,62.13
2023-04-10T21:05:33.998Z,68.72
2023-04-10T21:08:01.060Z,66.80
2023-04-10T21:10:28.019Z,73.65
2023-04-10T21:12:55.041Z,69.22
2023-04-10T21:15:22.524Z,68.28
2023-04-10T21:17:49.467Z,64.50
2023-04-10T21:20:16.578Z,54.58
2023-04-10T21:22:43.527Z,57.75
2023-04-10T21:25:11.156Z,51.03
2023-04-10T21:27:38.109Z,52.50
2023-04-10T21:30:05.851Z,69.10
2023-04-10T21:32:32.818Z,78.97
2023-04-10T21:34:59.841Z,118.95
2023-04-10T21:37:26.877Z,123.60
2023-04-10T21:39:53.845Z,119.97
2023-04-10T21:42:20.961Z,114.27
2023-04-10T21:44:47.929Z,114.07
2023-04-10T21:47:15.196Z,138.63
2023-04-10T21:49:42.157Z,112.73
2023-04-10T21:52:10.865Z,110.80
2023-04-10T21:54:38.329Z,124.77
2023-04-10T21:57:05.794Z,122.00
2023-04-10T21:59:33.358Z,127.30
2023-04-10T22:02:00.336Z,135.13
2023-04-10T22:04:27.565Z,121.18
2023-04-10T22:06:54.591Z,112.30
2023-04-10T22:09:22.215Z,113.57
2023-04-10T22:11:49.197Z,116.00
2023-04-10T22:14:18.696Z,107.60
2023-04-10T22:16:47.102Z,99.32
2023-04-10T22:19:14.153Z,87.40
2023-04-10T22:21:41.174Z,97.65
2023-04-10T22:24:08.423Z,95.07
2023-04-10T22:26:35.810Z,85.32
2023-04-10T22:29:04.369Z,93.03
2023-04-10T22:31:31.464Z,95.70
2023-04-10T22:33:58.659Z,92.90
2023-04-10T22:36:32.984Z,83.00
2023-04-10T22:39:00.389Z,95.13
2023-04-10T22:41:27.999Z,84.50
2023-04-10T22:43:55.154Z,85.23
2023-04-10T22:46:22.229Z,86.27
2023-04-10T22:48:49.405Z,80.80
2023-04-10T22:51:17.487Z,80.33
2023-04-10T22:53:44.419Z,73.87
2023-04-10T22:56:11.489Z,69.87
2023-04-10T22:58:40.497Z,66.70
2023-04-10T23:01:08.235Z,67.50
2023-04-10T23:03:35.777Z,71.93
2023-04-10T23:06:02.928Z,76.13
2023-04-10T23:08:29.905Z,74.00
2023-04-10T23:10:56.977Z,75.40
2023-04-10T23:13:23.975Z,75.63
2023-04-10T23:15:55.707Z,76.93
2023-04-10T23:18:23.020Z,66.43
2023-04-10T23:20:53.948Z,73.87
2023-04-10T23:23:20.948Z,62.87
2023-04-10T23:25:47.996Z,68.20
2023-04-10T23:28:15.064Z,66.97
2023-04-10T23:30:42.581Z,70.53
2023-04-10T23:33:09.604Z,69.13
2023-04-10T23:35:36.538Z,65.43
2023-04-10T23:38:03.496Z,68.87
2023-04-10T23:40:30.558Z,69.27
2023-04-10T23:42:57.577Z,66.30
2023-04-10T23:45:24.519Z,57.13
2023-04-10T23:47:51.500Z,59.63
2023-04-10T23:50:18.526Z,60.43
2023-04-10T23:52:50.364Z,53.83
2023-04-10T23:55:18.052Z,50.43
2023-04-10T23:57:45.314Z,54.77
